Highland Lakes, NJ (07422)

9:41 PM EDT on April 29, 2017 (GMT -0400)
Injun Lake | | Change Station

Elev 1247 ft 41.17 °N, 74.46 °W | Updated 14 seconds ago

Clear
Clear
64.6 °F
Feels Like 64.6 °F
N
0.0
Wind Variable Wind from SSE

Today
High -- | Low -- °F
--% Chance of Precip.
Yesterday
High -- | Low -- °F
Precip. -- in
Pressure 30.12 in
Visibility 10.0 miles
Clouds Mostly Cloudy 6000 ft
Dew Point 56 °F
Humidity 75%
Rainfall 0.04 in
Snow Depth Not available.
5:57 AM 7:53 PM
Waxing Crescent, 18% visible
METAR KFWN 300053Z AUTO VRB06KT 10SM BKN060 22/13 A3012 RMK AO2 PRESRR SLP198 T02170133
Pressure 30.12 in
Visibility 10.0 miles
Clouds Mostly Cloudy 6000 ft
Dew Point 56 °F
Humidity 75%
Rainfall 0.04 in
Snow Depth Not available.
5:57 AM 7:53 PM
Waxing Crescent, 18% visible
METAR KFWN 300053Z AUTO VRB06KT 10SM BKN060 22/13 A3012 RMK AO2 PRESRR SLP198 T02170133

Get Severe Weather Alerts

Thanks for signing up!

Be on the lookout for a verification email in your inbox.

You'll start receiving the daily forecast at 8 AM.

×

10-Day Weather Forecast

Almanac

Astronomy

Apr. 29, 2017 Rise Set
Actual Time
Civil Twilight
Nautical Twilight
Astronomical Twilight
Moon
Length of Visible Light
Length of Day
Tomorrow will be .
, % of the Moon is Illuminated

Today's Extremes

State Highs State Lows

Community

WunderPhotos

WunderBlog® & News

Nearby

Air Quality

  Air Quality AQ Index Pollutant
Not available.

Snow Depth

Station Depth Elevation

Earthquake Activity

City Distance Mag. Time & Date
Minimum magnitude displayed is 2.5.

Coastal Water Temperatures

Place Temperature

Stations

Nearby Weather Stations

Station Location Temp. Windchill Dew Point Humidity Wind Precip. Elev Updated Type
                   

Watches & Warnings

There are currently no watches in effect.